Time;durP1;ratioP1;P1;durP2;ratioP2;P2;SDS_P1;SDS_P2;PMS_P1;PMS_P2;Temp;Humidity;BMP_temperature;BMP_pressure;BME280_temperature;BME280_humidity;BME280_pressure;Samples;Min_cycle;Max_cycle;Signal;HPM_P1;HPM_P2
2023/07/07 00:00:34;;;;;;;;;;;11.70;99.90;;;;;;5136013;27;20549;-81
2023/07/07 00:03:00;;;;;;;;;;;11.70;99.90;;;;;;5135806;27;19927;-82
2023/07/07 00:05:28;;;;;;;;;;;11.70;99.90;;;;;;5137323;27;20296;-80
2023/07/07 00:07:54;;;;;;;;;;;11.70;99.90;;;;;;5135697;27;19919;-78
2023/07/07 00:10:20;;;;;;;;;;;11.60;99.90;;;;;;5101580;27;19923;-77
2023/07/07 00:12:46;;;;;;;;;;;11.60;99.90;;;;;;5118572;27;19987;-81
2023/07/07 00:15:11;;;;;;;;;;;11.50;99.90;;;;;;5135663;27;20379;-78
2023/07/07 00:17:37;;;;;;;;;;;12.40;99.90;;;;;;5135458;27;20056;-82
2023/07/07 00:20:07;;;;;;;;;;;11.50;99.90;;;;;;5135886;27;19949;-83
2023/07/07 00:22:37;;;;;;;;;;;11.50;99.90;;;;;;5135537;27;20355;-78
2023/07/07 00:25:09;;;;;;;;;;;11.50;99.90;;;;;;5118394;27;19927;-79
2023/07/07 00:27:37;;;;;;;;;;;11.40;99.90;;;;;;5136353;27;19926;-79
2023/07/07 00:30:03;;;;;;;;;;;11.30;99.90;;;;;;5134682;27;19923;-79
2023/07/07 00:32:29;;;;;;;;;;;11.30;99.90;;;;;;5101437;27;19972;-80
2023/07/07 00:34:55;;;;;;;;;;;11.30;99.90;;;;;;5135299;27;20010;-78
2023/07/07 00:37:20;;;;;;;;;;;11.30;99.90;;;;;;5134972;27;19991;-82
2023/07/07 00:39:46;;;;;;;;;;;11.30;99.90;;;;;;5101293;27;19927;-81
2023/07/07 00:42:11;;;;;;;;;;;11.20;99.90;;;;;;5117316;27;19923;-83
2023/07/07 00:44:56;;;;;;;;;;;11.20;99.90;;;;;;5135265;27;19923;-83
2023/07/07 00:47:21;;;;;;;;;;;11.20;99.90;;;;;;5100284;27;19924;-82
2023/07/07 00:49:47;;;;;;;;;;;11.20;99.90;;;;;;5124036;27;20346;-82
2023/07/07 00:52:13;;;;;;;;;;;11.20;99.90;;;;;;5138640;27;20013;-78
2023/07/07 00:54:38;;;;;;;;;;;11.10;99.90;;;;;;5138846;27;19926;-84
2023/07/07 00:57:04;;;;;;;;;;;11.10;99.90;;;;;;5138416;27;19923;-84
2023/07/07 00:59:35;;;;;;;;;;;11.10;99.90;;;;;;5137019;27;20331;-80
2023/07/07 01:02:09;;;;;;;;;;;11.10;99.90;;;;;;5156891;27;19929;-78
2023/07/07 01:04:34;;;;;;;;;;;11.00;99.90;;;;;;5138246;27;19954;-83
2023/07/07 01:07:08;;;;;;;;;;;11.00;99.90;;;;;;5137939;27;20014;-82
2023/07/07 01:09:33;;;;;;;;;;;11.00;99.90;;;;;;5137835;27;20541;-83
2023/07/07 01:11:59;;;;;;;;;;;11.00;99.90;;;;;;5137483;27;19923;-80
2023/07/07 01:14:27;;;;;;;;;;;11.00;99.90;;;;;;5120425;27;19919;-83
2023/07/07 01:17:02;;;;;;;;;;;11.00;99.90;;;;;;5121127;27;20290;-81
2023/07/07 01:19:40;;;;;;;;;;;11.00;99.90;;;;;;5137549;27;19919;-79
2023/07/07 01:22:17;;;;;;;;;;;10.90;99.90;;;;;;5120661;27;20339;-79
2023/07/07 01:24:43;;;;;;;;;;;10.90;99.90;;;;;;5138039;27;19975;-80
2023/07/07 01:27:27;;;;;;;;;;;10.90;99.90;;;;;;5138131;27;19923;-80
2023/07/07 01:29:55;;;;;;;;;;;10.90;99.90;;;;;;5137607;27;19923;-83
2023/07/07 01:32:22;;;;;;;;;;;10.80;99.90;;;;;;5137446;27;19919;-79
2023/07/07 01:34:48;;;;;;;;;;;10.80;99.90;;;;;;5137494;27;20439;-83
2023/07/07 01:37:14;;;;;;;;;;;10.80;99.90;;;;;;5137417;27;19971;-83
2023/07/07 01:39:41;;;;;;;;;;;10.80;99.90;;;;;;5137447;27;20332;-81
2023/07/07 01:42:13;;;;;;;;;;;10.80;99.90;;;;;;5136884;27;19970;-80
2023/07/07 01:44:54;;;;;;;;;;;10.70;99.90;;;;;;5137374;27;19957;-78
2023/07/07 01:47:33;;;;;;;;;;;10.70;99.90;;;;;;5137085;27;20399;-81
2023/07/07 01:50:01;;;;;;;;;;;10.70;99.90;;;;;;5133799;27;20268;-81
2023/07/07 01:52:30;;;;;;;;;;;10.60;99.90;;;;;;5134029;27;20479;-81
2023/07/07 01:55:22;;;;;;;;;;;10.60;99.90;;;;;;5133432;27;19919;-80
2023/07/07 01:57:51;;;;;;;;;;;10.60;99.90;;;;;;5128921;27;19931;-81
2023/07/07 02:00:17;;;;;;;;;;;10.50;99.90;;;;;;5133397;27;20252;-82
2023/07/07 02:02:43;;;;;;;;;;;10.30;99.90;;;;;;5133163;27;19972;-83
2023/07/07 02:05:10;;;;;;;;;;;10.50;99.90;;;;;;5116008;27;19923;-80
2023/07/07 02:07:35;;;;;;;;;;;10.50;99.90;;;;;;5116022;27;19927;-81
2023/07/07 02:10:01;;;;;;;;;;;10.50;99.90;;;;;;5133336;27;19919;-84
2023/07/07 02:12:26;;;;;;;;;;;10.50;99.90;;;;;;5133103;27;19923;-82
2023/07/07 02:14:52;;;;;;;;;;;10.50;99.90;;;;;;5133349;27;19969;-83
2023/07/07 02:17:18;;;;;;;;;;;10.50;99.90;;;;;;5132981;27;19919;-79
2023/07/07 02:19:44;;;;;;;;;;;10.50;99.90;;;;;;5116463;27;19930;-79
2023/07/07 02:22:10;;;;;;;;;;;10.50;99.90;;;;;;5132581;27;20451;-76
2023/07/07 02:24:35;;;;;;;;;;;10.50;99.90;;;;;;5116092;27;19919;-80
2023/07/07 02:27:02;;;;;;;;;;;10.50;99.90;;;;;;5133789;27;19968;-81
2023/07/07 02:29:28;;;;;;;;;;;10.40;99.90;;;;;;5133134;27;19974;-78
2023/07/07 02:31:53;;;;;;;;;;;10.40;99.90;;;;;;5133198;27;20406;-82
2023/07/07 02:34:19;;;;;;;;;;;10.30;99.90;;;;;;5132732;27;19931;-80
2023/07/07 02:36:52;;;;;;;;;;;10.30;99.90;;;;;;5120558;27;20324;-82
2023/07/07 02:39:17;;;;;;;;;;;10.30;99.90;;;;;;5118737;27;19919;-80
2023/07/07 02:41:43;;;;;;;;;;;10.40;99.90;;;;;;5119216;27;20557;-82
2023/07/07 02:44:09;;;;;;;;;;;10.40;99.90;;;;;;5118981;27;19927;-80
2023/07/07 02:46:34;;;;;;;;;;;10.40;99.90;;;;;;5101582;27;19923;-81
2023/07/07 02:49:00;;;;;;;;;;;10.40;99.90;;;;;;5118859;27;19979;-81
2023/07/07 02:51:25;;;;;;;;;;;10.40;99.90;;;;;;5136035;27;19926;-79
2023/07/07 02:53:51;;;;;;;;;;;10.50;99.90;;;;;;5101750;27;19930;-79
2023/07/07 02:56:16;;;;;;;;;;;10.50;99.90;;;;;;5135856;27;19923;-77
2023/07/07 02:58:42;;;;;;;;;;;10.50;99.90;;;;;;5136329;27;19926;-78
2023/07/07 03:01:10;;;;;;;;;;;10.60;99.90;;;;;;5135658;27;20018;-79
2023/07/07 03:03:39;;;;;;;;;;;10.60;99.90;;;;;;5135566;27;20398;-83
2023/07/07 03:06:06;;;;;;;;;;;10.60;99.90;;;;;;5118788;27;20006;-82
2023/07/07 03:08:31;;;;;;;;;;;10.60;99.90;;;;;;5135434;27;19922;-78
2023/07/07 03:11:07;;;;;;;;;;;10.70;99.90;;;;;;5136757;27;19974;-81
2023/07/07 03:13:33;;;;;;;;;;;10.80;99.90;;;;;;5135440;27;19977;-83
2023/07/07 03:16:06;;;;;;;;;;;10.90;99.90;;;;;;5134718;27;20038;-83
2023/07/07 03:18:33;;;;;;;;;;;11.00;99.90;;;;;;5134432;27;19929;-83
2023/07/07 03:20:58;;;;;;;;;;;11.20;99.90;;;;;;5134443;27;20385;-80
2023/07/07 03:23:24;;;;;;;;;;;11.30;99.90;;;;;;5101341;27;19978;-84
2023/07/07 03:25:56;;;;;;;;;;;11.40;99.90;;;;;;5136270;27;19982;-80
2023/07/07 03:28:21;;;;;;;;;;;11.60;99.90;;;;;;5136056;27;20017;-81
2023/07/07 03:30:48;;;;;;;;;;;11.70;99.90;;;;;;5136117;27;19919;-80
2023/07/07 03:33:14;;;;;;;;;;;11.70;99.90;;;;;;5098912;27;19963;-78
2023/07/07 03:35:39;;;;;;;;;;;11.90;99.90;;;;;;5098412;28;20377;-81
2023/07/07 03:38:05;;;;;;;;;;;12.00;99.90;;;;;;5081301;28;20018;-81
2023/07/07 03:40:31;;;;;;;;;;;12.10;99.90;;;;;;5114583;28;19944;-83
2023/07/07 03:42:56;;;;;;;;;;;12.10;99.90;;;;;;5097994;28;20499;-79
2023/07/07 03:45:22;;;;;;;;;;;12.20;99.90;;;;;;5114442;28;19920;-82
2023/07/07 03:47:50;;;;;;;;;;;12.20;99.90;;;;;;5114585;28;19923;-81
2023/07/07 03:50:21;;;;;;;;;;;12.20;99.90;;;;;;5125086;27;19926;-80
2023/07/07 03:52:47;;;;;;;;;;;12.20;99.90;;;;;;5118077;27;19919;-80
2023/07/07 03:55:12;;;;;;;;;;;12.30;99.90;;;;;;5136208;27;20018;-77
2023/07/07 03:57:41;;;;;;;;;;;12.30;99.90;;;;;;5135704;27;20384;-79
2023/07/07 04:00:08;;;;;;;;;;;12.40;99.90;;;;;;5118475;27;19972;-84
2023/07/07 04:02:35;;;;;;;;;;;12.50;99.90;;;;;;5135170;27;19946;-82
2023/07/07 04:05:01;;;;;;;;;;;12.60;99.90;;;;;;5117948;27;20009;-80
2023/07/07 04:07:26;;;;;;;;;;;12.70;99.90;;;;;;5117896;27;19974;-78
2023/07/07 04:09:52;;;;;;;;;;;12.70;99.90;;;;;;5118255;27;19919;-79
2023/07/07 04:12:17;;;;;;;;;;;12.80;99.90;;;;;;5135494;27;19919;-80
2023/07/07 04:14:43;;;;;;;;;;;12.80;99.90;;;;;;5135143;27;19919;-82
2023/07/07 04:17:09;;;;;;;;;;;12.90;99.90;;;;;;5136020;27;19926;-81
2023/07/07 04:19:40;;;;;;;;;;;12.90;99.90;;;;;;5135307;27;19972;-79
2023/07/07 04:22:11;;;;;;;;;;;13.00;99.90;;;;;;5135687;27;19981;-83
2023/07/07 04:24:37;;;;;;;;;;;13.00;99.90;;;;;;5135102;27;20007;-80
2023/07/07 04:27:03;;;;;;;;;;;13.10;99.90;;;;;;5136101;27;20352;-81
2023/07/07 04:29:29;;;;;;;;;;;13.10;99.90;;;;;;5114468;28;19920;-84
2023/07/07 04:31:55;;;;;;;;;;;13.20;99.90;;;;;;5114365;28;20015;-77
2023/07/07 04:34:20;;;;;;;;;;;13.30;99.90;;;;;;5116658;27;19958;-80
2023/07/07 04:36:46;;;;;;;;;;;13.40;99.90;;;;;;5101137;27;20356;-78
2023/07/07 04:39:11;;;;;;;;;;;13.40;99.90;;;;;;5118075;27;19930;-79
2023/07/07 04:41:37;;;;;;;;;;;13.60;99.90;;;;;;5101086;27;19931;-79
2023/07/07 04:44:09;;;;;;;;;;;13.70;99.90;;;;;;5138379;27;19929;-79
2023/07/07 04:46:37;;;;;;;;;;;13.80;99.90;;;;;;5138226;27;19919;-82
2023/07/07 04:49:06;;;;;;;;;;;13.80;99.90;;;;;;5121219;27;19926;-83
2023/07/07 04:51:41;;;;;;;;;;;13.90;99.90;;;;;;5138869;27;20287;-80
2023/07/07 04:54:09;;;;;;;;;;;14.00;99.90;;;;;;5138428;27;19923;-80
2023/07/07 04:56:35;;;;;;;;;;;14.00;99.90;;;;;;5120972;27;20005;-85
2023/07/07 04:59:02;;;;;;;;;;;14.10;99.90;;;;;;5122078;27;20057;-84
2023/07/07 05:01:29;;;;;;;;;;;14.20;99.90;;;;;;5138629;27;19978;-80
2023/07/07 05:04:05;;;;;;;;;;;14.30;99.90;;;;;;5121376;27;20321;-84
2023/07/07 05:06:38;;;;;;;;;;;14.40;99.90;;;;;;5121692;27;19930;-79
2023/07/07 05:09:05;;;;;;;;;;;14.40;99.90;;;;;;5121369;27;19919;-83
2023/07/07 05:11:31;;;;;;;;;;;14.50;99.90;;;;;;5104843;27;20019;-80
2023/07/07 05:13:57;;;;;;;;;;;14.50;99.90;;;;;;5138066;27;19919;-79
2023/07/07 05:16:24;;;;;;;;;;;14.60;99.90;;;;;;5121982;27;19929;-82
2023/07/07 05:18:50;;;;;;;;;;;14.70;99.90;;;;;;5137932;27;20391;-79
2023/07/07 05:21:17;;;;;;;;;;;14.80;99.90;;;;;;5137856;27;19930;-81
2023/07/07 05:23:43;;;;;;;;;;;14.80;99.90;;;;;;5136030;27;19923;-81
2023/07/07 05:26:09;;;;;;;;;;;14.90;99.90;;;;;;5117665;27;19926;-78
2023/07/07 05:28:38;;;;;;;;;;;14.90;99.90;;;;;;5135913;27;19968;-82
2023/07/07 05:31:07;;;;;;;;;;;15.00;99.90;;;;;;5117347;27;19923;-82
2023/07/07 05:33:33;;;;;;;;;;;15.10;99.90;;;;;;5099516;27;20006;-83
2023/07/07 05:36:00;;;;;;;;;;;15.10;99.90;;;;;;5117152;27;20010;-80
2023/07/07 05:38:26;;;;;;;;;;;15.20;99.90;;;;;;5135434;27;19993;-81
2023/07/07 05:40:52;;;;;;;;;;;15.30;99.90;;;;;;5099766;27;19924;-81
2023/07/07 05:43:21;;;;;;;;;;;15.40;99.90;;;;;;5130843;27;19919;-79
2023/07/07 05:45:47;;;;;;;;;;;15.50;99.90;;;;;;5119346;27;19944;-82
2023/07/07 05:48:15;;;;;;;;;;;15.60;99.90;;;;;;5137174;27;20281;-78
2023/07/07 05:50:41;;;;;;;;;;;15.70;99.90;;;;;;5136372;27;20013;-82
2023/07/07 05:53:08;;;;;;;;;;;15.80;99.90;;;;;;5120175;27;19923;-84
2023/07/07 05:55:34;;;;;;;;;;;16.20;99.90;;;;;;5119338;27;19920;-80
2023/07/07 05:58:00;;;;;;;;;;;16.00;99.90;;;;;;5136638;27;20379;-78
2023/07/07 06:00:27;;;;;;;;;;;16.30;99.90;;;;;;5136983;27;20431;-81
2023/07/07 06:02:56;;;;;;;;;;;16.10;99.90;;;;;;5136363;27;19919;-84
2023/07/07 06:05:22;;;;;;;;;;;16.30;99.90;;;;;;5136838;27;20025;-79
2023/07/07 06:07:49;;;;;;;;;;;16.40;99.90;;;;;;5136119;27;19923;-81
2023/07/07 06:10:14;;;;;;;;;;;16.50;99.90;;;;;;5119675;27;19922;-80
2023/07/07 06:12:40;;;;;;;;;;;16.50;99.90;;;;;;5136644;27;19929;-81
2023/07/07 06:15:06;;;;;;;;;;;16.80;99.90;;;;;;5136552;27;19927;-82
2023/07/07 06:17:32;;;;;;;;;;;16.70;99.90;;;;;;5136373;27;19951;-78
2023/07/07 06:19:58;;;;;;;;;;;17.00;99.90;;;;;;5136140;27;19927;-78
2023/07/07 06:22:23;;;;;;;;;;;17.00;99.90;;;;;;5119481;27;19985;-79
2023/07/07 06:24:50;;;;;;;;;;;17.00;99.90;;;;;;5136036;27;20038;-80
2023/07/07 06:27:15;;;;;;;;;;;17.10;99.90;;;;;;5102492;27;19915;-79
2023/07/07 06:29:41;;;;;;;;;;;17.40;99.90;;;;;;5136537;27;19919;-76
2023/07/07 06:32:07;;;;;;;;;;;17.20;99.90;;;;;;5119278;27;19934;-81
2023/07/07 06:34:32;;;;;;;;;;;17.30;99.90;;;;;;5136303;27;19919;-82
2023/07/07 06:36:59;;;;;;;;;;;17.40;99.90;;;;;;5136585;27;19919;-79
2023/07/07 06:39:26;;;;;;;;;;;17.40;99.90;;;;;;5107539;27;20467;-78
2023/07/07 06:41:55;;;;;;;;;;;17.60;99.90;;;;;;5098854;27;19927;-79
2023/07/07 06:44:21;;;;;;;;;;;17.70;99.90;;;;;;5098639;27;19971;-81
2023/07/07 06:46:47;;;;;;;;;;;17.80;99.90;;;;;;5115309;27;20005;-78
2023/07/07 06:49:12;;;;;;;;;;;18.00;99.90;;;;;;5134890;27;19967;-78
2023/07/07 06:51:38;;;;;;;;;;;18.10;99.90;;;;;;5115758;27;19919;-79
2023/07/07 06:54:03;;;;;;;;;;;18.20;99.90;;;;;;5115904;27;19920;-82
2023/07/07 06:56:29;;;;;;;;;;;18.30;99.90;;;;;;5098905;27;19929;-80
2023/07/07 06:58:55;;;;;;;;;;;18.40;99.90;;;;;;5080675;27;20288;-78
2023/07/07 07:01:24;;;;;;;;;;;18.60;99.90;;;;;;5134476;27;20060;-81
2023/07/07 07:03:50;;;;;;;;;;;18.70;99.90;;;;;;5115875;27;20010;-81
2023/07/07 07:06:16;;;;;;;;;;;18.80;99.90;;;;;;5099068;27;20056;-79
2023/07/07 07:08:41;;;;;;;;;;;18.90;99.90;;;;;;5115524;27;19923;-83
2023/07/07 07:11:07;;;;;;;;;;;19.00;99.90;;;;;;5098822;27;19964;-81
2023/07/07 07:13:34;;;;;;;;;;;19.10;99.90;;;;;;5098205;27;19925;-81
2023/07/07 07:15:59;;;;;;;;;;;19.30;99.90;;;;;;5115158;27;19924;-81
2023/07/07 07:18:25;;;;;;;;;;;19.40;99.90;;;;;;5115236;27;19995;-79
2023/07/07 07:20:51;;;;;;;;;;;19.50;99.90;;;;;;5097762;27;19927;-81
2023/07/07 07:23:17;;;;;;;;;;;19.60;99.90;;;;;;5115479;27;19930;-80
2023/07/07 07:25:44;;;;;;;;;;;19.80;99.90;;;;;;5098315;27;19924;-79
2023/07/07 07:28:11;;;;;;;;;;;19.80;99.90;;;;;;5115338;27;20018;-79
2023/07/07 07:30:36;;;;;;;;;;;20.00;99.90;;;;;;5098228;27;20329;-84
2023/07/07 07:33:06;;;;;;;;;;;20.10;99.90;;;;;;5097712;27;19974;-83
2023/07/07 07:35:32;;;;;;;;;;;20.10;99.90;;;;;;5114932;27;19948;-83
2023/07/07 07:37:58;;;;;;;;;;;20.20;99.90;;;;;;5097358;27;20321;-82
2023/07/07 07:40:23;;;;;;;;;;;20.30;99.90;;;;;;5115220;28;20389;-80
2023/07/07 07:42:49;;;;;;;;;;;20.30;99.90;;;;;;5114569;28;19966;-78
2023/07/07 07:45:19;;;;;;;;;;;20.40;99.90;;;;;;5115143;28;19919;-80
2023/07/07 07:47:45;;;;;;;;;;;20.60;99.90;;;;;;5114437;28;19947;-84
2023/07/07 07:50:11;;;;;;;;;;;20.70;99.90;;;;;;5103968;28;19924;-81
2023/07/07 07:52:37;;;;;;;;;;;20.70;99.90;;;;;;5131908;28;19973;-79
2023/07/07 07:55:03;;;;;;;;;;;20.80;99.90;;;;;;5114393;28;20004;-80
2023/07/07 07:57:28;;;;;;;;;;;21.00;99.90;;;;;;5115092;28;20010;-80
2023/07/07 07:59:54;;;;;;;;;;;21.00;99.90;;;;;;5131613;28;19919;-82
2023/07/07 08:02:19;;;;;;;;;;;21.10;99.90;;;;;;5132294;28;20330;-82
2023/07/07 08:04:46;;;;;;;;;;;21.20;99.90;;;;;;5131825;28;19946;-81
2023/07/07 08:07:11;;;;;;;;;;;21.20;99.90;;;;;;5114042;28;20376;-80
2023/07/07 08:09:37;;;;;;;;;;;21.30;99.90;;;;;;5134387;27;19923;-78
2023/07/07 08:12:03;;;;;;;;;;;21.40;99.90;;;;;;5135659;27;20011;-82
2023/07/07 08:14:30;;;;;;;;;;;21.50;99.90;;;;;;5139780;27;20293;-82
2023/07/07 08:16:57;;;;;;;;;;;21.60;99.90;;;;;;5105140;27;20668;-78
2023/07/07 08:19:22;;;;;;;;;;;21.70;99.90;;;;;;5139199;27;19931;-78
2023/07/07 08:21:48;;;;;;;;;;;21.80;99.90;;;;;;5138139;27;20406;-83
2023/07/07 08:24:14;;;;;;;;;;;21.90;99.90;;;;;;5121860;27;19919;-80
2023/07/07 08:26:40;;;;;;;;;;;22.10;99.90;;;;;;5139083;27;19976;-88
2023/07/07 08:29:06;;;;;;;;;;;22.10;99.90;;;;;;5138560;27;20198;-78
2023/07/07 08:31:37;;;;;;;;;;;22.10;99.90;;;;;;5138546;27;19925;-77
2023/07/07 08:34:03;;;;;;;;;;;22.30;99.90;;;;;;5138147;27;20367;-80
2023/07/07 08:36:29;;;;;;;;;;;22.40;99.90;;;;;;5138457;27;19998;-80
2023/07/07 08:38:59;;;;;;;;;;;22.40;99.90;;;;;;5120911;27;19926;-82
2023/07/07 08:41:27;;;;;;;;;;;22.50;99.90;;;;;;5138548;27;20388;-81
2023/07/07 08:43:53;;;;;;;;;;;22.50;99.90;;;;;;5138041;27;19966;-79
2023/07/07 08:46:33;;;;;;;;;;;22.50;99.90;;;;;;5138792;27;19919;-79
2023/07/07 08:49:09;;;;;;;;;;;22.60;99.90;;;;;;5138482;27;20031;-79
2023/07/07 08:51:42;;;;;;;;;;;22.70;99.90;;;;;;5117397;27;19924;-79
2023/07/07 08:54:19;;;;;;;;;;;22.80;99.90;;;;;;5117658;27;19952;-79
2023/07/07 08:56:48;;;;;;;;;;;22.90;99.90;;;;;;5135161;27;19927;-79
2023/07/07 08:59:17;;;;;;;;;;;23.00;99.90;;;;;;5117677;27;19919;-82
2023/07/07 09:01:50;;;;;;;;;;;23.10;99.90;;;;;;5117295;27;20281;-78
2023/07/07 09:04:34;;;;;;;;;;;23.30;99.90;;;;;;5117913;27;20333;-79
2023/07/07 09:07:06;;;;;;;;;;;23.30;99.90;;;;;;5102048;27;19930;-79
2023/07/07 09:09:52;;;;;;;;;;;23.30;99.90;;;;;;5129195;27;19930;-79
2023/07/07 09:12:26;;;;;;;;;;;23.30;96.70;;;;;;5116807;27;20370;-82
2023/07/07 09:14:53;;;;;;;;;;;23.30;96.60;;;;;;5120860;27;19986;-80
2023/07/07 09:17:25;;;;;;;;;;;23.40;97.40;;;;;;5138389;27;20279;-81
2023/07/07 09:19:52;;;;;;;;;;;23.50;95.60;;;;;;5119353;27;19997;-82
2023/07/07 09:22:17;;;;;;;;;;;23.60;96.60;;;;;;5136812;27;20388;-78
2023/07/07 09:24:51;;;;;;;;;;;23.70;97.10;;;;;;5155823;27;19979;-79
2023/07/07 09:27:19;;;;;;;;;;;23.70;95.70;;;;;;5137656;27;20315;-78
2023/07/07 09:29:45;;;;;;;;;;;23.80;98.10;;;;;;5120217;27;19931;-83
2023/07/07 09:32:12;;;;;;;;;;;23.90;94.50;;;;;;5137057;27;19919;-81
2023/07/07 09:34:39;;;;;;;;;;;23.90;95.50;;;;;;5138146;27;20279;-79
2023/07/07 09:37:05;;;;;;;;;;;24.00;97.10;;;;;;5137663;27;19923;-83
2023/07/07 09:39:42;;;;;;;;;;;24.10;96.80;;;;;;5119882;27;19930;-83
2023/07/07 09:42:20;;;;;;;;;;;24.10;93.30;;;;;;5137307;27;19927;-83
2023/07/07 09:44:49;;;;;;;;;;;24.10;93.40;;;;;;5137136;27;19919;-81
2023/07/07 09:47:30;;;;;;;;;;;24.20;94.60;;;;;;5137399;27;19930;-85
2023/07/07 09:50:01;;;;;;;;;;;24.20;95.40;;;;;;5115593;27;19923;-85
2023/07/07 09:53:02;;;;;;;;;;;24.20;93.70;;;;;;5100844;27;19931;-83
2023/07/07 09:55:33;;;;;;;;;;;24.20;92.10;;;;;;5120237;27;20017;-83
2023/07/07 09:58:02;;;;;;;;;;;24.20;93.90;;;;;;5100401;27;19919;-82
2023/07/07 10:00:29;;;;;;;;;;;24.30;93.20;;;;;;5099603;27;19930;-82
2023/07/07 10:02:56;;;;;;;;;;;24.30;93.70;;;;;;5099526;27;19919;-83
2023/07/07 10:05:24;;;;;;;;;;;24.40;93.30;;;;;;5121103;27;19966;-82
2023/07/07 10:07:51;;;;;;;;;;;24.50;93.30;;;;;;5119572;27;20534;-83
2023/07/07 10:10:17;;;;;;;;;;;24.60;92.60;;;;;;5120305;27;20261;-81
2023/07/07 10:12:43;;;;;;;;;;;24.80;92.40;;;;;;5102716;27;19919;-84
2023/07/07 10:15:29;;;;;;;;;;;24.80;92.40;;;;;;5102461;27;19923;-82
2023/07/07 10:17:58;;;;;;;;;;;24.80;89.30;;;;;;5118982;27;19930;-79
2023/07/07 10:20:25;;;;;;;;;;;24.70;91.10;;;;;;5119781;27;19938;-81
2023/07/07 10:22:50;;;;;;;;;;;24.80;90.00;;;;;;5133364;27;19928;-81
2023/07/07 10:25:17;;;;;;;;;;;24.80;90.90;;;;;;5133178;27;20284;-79
2023/07/07 10:27:53;;;;;;;;;;;24.80;90.90;;;;;;5133098;27;20310;-81
2023/07/07 10:30:19;;;;;;;;;;;24.90;91.10;;;;;;5116146;27;19919;-84
2023/07/07 10:32:46;;;;;;;;;;;25.00;91.00;;;;;;5132263;27;19927;-77
2023/07/07 10:35:15;;;;;;;;;;;25.10;86.90;;;;;;5090595;28;20396;-81
2023/07/07 10:37:41;;;;;;;;;;;25.20;90.00;;;;;;5095552;28;20319;-84
2023/07/07 10:40:12;;;;;;;;;;;25.20;87.10;;;;;;5077492;28;19935;-80
2023/07/07 10:42:43;;;;;;;;;;;25.30;91.10;;;;;;5112854;28;19927;-80
2023/07/07 10:45:10;;;;;;;;;;;25.50;90.10;;;;;;5094928;28;19923;-82
2023/07/07 10:47:36;;;;;;;;;;;25.60;89.80;;;;;;5094576;28;19930;-83
2023/07/07 10:50:04;;;;;;;;;;;25.80;90.90;;;;;;5111332;28;19923;-78
2023/07/07 10:52:44;;;;;;;;;;;26.00;90.50;;;;;;5112463;28;20360;-82
2023/07/07 10:55:28;;;;;;;;;;;26.20;91.50;;;;;;5094846;28;19943;-83
2023/07/07 10:58:03;;;;;;;;;;;26.10;89.00;;;;;;5112125;28;19935;-81
2023/07/07 11:00:30;;;;;;;;;;;25.90;88.90;;;;;;5111928;28;19984;-83
2023/07/07 11:03:14;;;;;;;;;;;25.90;88.60;;;;;;5094612;28;19924;-78
2023/07/07 11:05:45;;;;;;;;;;;26.00;90.10;;;;;;5095042;28;19939;-81
2023/07/07 11:08:15;;;;;;;;;;;26.10;86.70;;;;;;5094474;28;20015;-84
2023/07/07 11:11:08;;;;;;;;;;;26.20;89.20;;;;;;5095223;28;19921;-81
2023/07/07 11:13:54;;;;;;;;;;;26.20;83.00;;;;;;5112243;28;19919;-84
2023/07/07 11:16:28;;;;;;;;;;;26.30;89.20;;;;;;5111877;28;19920;-84
2023/07/07 11:19:20;;;;;;;;;;;26.40;86.70;;;;;;5112400;28;20368;-84
2023/07/07 11:21:53;;;;;;;;;;;26.20;81.40;;;;;;5115850;27;19974;-83
2023/07/07 11:24:25;;;;;;;;;;;26.30;82.80;;;;;;5114646;27;19920;-80
2023/07/07 11:26:54;;;;;;;;;;;26.10;87.60;;;;;;5132292;27;19919;-84
2023/07/07 11:29:29;;;;;;;;;;;26.10;84.70;;;;;;5115339;27;19988;-82
2023/07/07 11:32:14;;;;;;;;;;;26.10;85.30;;;;;;5132106;27;20400;-80
2023/07/07 11:34:54;;;;;;;;;;;26.10;87.40;;;;;;5133534;27;19983;-85
2023/07/07 11:37:38;;;;;;;;;;;26.10;83.80;;;;;;5132967;27;19923;-84
2023/07/07 11:40:10;;;;;;;;;;;26.20;87.80;;;;;;5131322;27;19928;-80
2023/07/07 11:42:48;;;;;;;;;;;26.30;84.80;;;;;;5131819;27;19962;-81
2023/07/07 11:45:29;;;;;;;;;;;26.60;85.50;;;;;;5131348;28;19923;-84
2023/07/07 11:47:58;;;;;;;;;;;26.70;82.80;;;;;;5131714;28;19920;-80
2023/07/07 11:50:36;;;;;;;;;;;26.70;84.10;;;;;;5131323;28;19972;-81
2023/07/07 11:53:08;;;;;;;;;;;26.80;81.40;;;;;;5131184;28;19927;-82
2023/07/07 11:55:39;;;;;;;;;;;27.10;83.30;;;;;;5132038;28;19959;-79
2023/07/07 11:58:17;;;;;;;;;;;27.20;80.70;;;;;;5117952;27;19925;-79
2023/07/07 12:00:46;;;;;;;;;;;27.40;82.70;;;;;;5118383;27;20368;-80
2023/07/07 12:03:21;;;;;;;;;;;27.60;82.10;;;;;;5134884;27;19975;-83
2023/07/07 12:05:47;;;;;;;;;;;27.80;81.20;;;;;;5135826;27;19950;-86
2023/07/07 12:08:20;;;;;;;;;;;27.90;79.60;;;;;;5136010;27;19927;-87
2023/07/07 12:10:50;;;;;;;;;;;28.00;79.40;;;;;;5134918;27;19975;-78
2023/07/07 12:13:22;;;;;;;;;;;28.00;79.30;;;;;;5135488;27;19919;-83
2023/07/07 12:15:49;;;;;;;;;;;28.10;77.30;;;;;;5135745;27;19919;-81
2023/07/07 12:18:20;;;;;;;;;;;28.20;73.80;;;;;;5135274;27;19927;-78
2023/07/07 12:20:53;;;;;;;;;;;28.30;74.50;;;;;;5118432;27;19989;-84
2023/07/07 12:23:21;;;;;;;;;;;28.30;75.60;;;;;;5153088;27;19991;-80
2023/07/07 12:25:46;;;;;;;;;;;28.40;77.40;;;;;;5118527;27;20272;-80
2023/07/07 12:28:13;;;;;;;;;;;28.40;72.80;;;;;;5135557;27;19919;-79
2023/07/07 12:30:43;;;;;;;;;;;28.60;73.70;;;;;;5135806;27;19970;-86
2023/07/07 12:33:09;;;;;;;;;;;28.70;75.50;;;;;;5135710;27;19926;-81
2023/07/07 12:35:40;;;;;;;;;;;28.90;80.60;;;;;;5135009;27;19919;-79
2023/07/07 12:38:16;;;;;;;;;;;29.00;74.40;;;;;;5134146;27;20354;-80
2023/07/07 12:40:45;;;;;;;;;;;29.20;80.10;;;;;;5134845;27;20335;-79
2023/07/07 12:43:37;;;;;;;;;;;29.30;73.20;;;;;;5117285;27;19926;-83
2023/07/07 12:46:16;;;;;;;;;;;29.40;70.30;;;;;;5130337;27;19927;-85
2023/07/07 12:48:43;;;;;;;;;;;29.50;71.50;;;;;;5134784;27;19926;-80
2023/07/07 12:51:09;;;;;;;;;;;29.50;72.70;;;;;;5134637;27;19919;-80
2023/07/07 12:53:36;;;;;;;;;;;29.60;73.80;;;;;;5135176;27;19919;-83
2023/07/07 12:56:12;;;;;;;;;;;29.70;71.00;;;;;;5119485;27;20358;-80
2023/07/07 12:58:38;;;;;;;;;;;29.60;72.10;;;;;;5138184;27;19919;-86
2023/07/07 13:01:10;;;;;;;;;;;29.60;71.80;;;;;;5137546;27;19930;-88
2023/07/07 13:03:42;;;;;;;;;;;29.70;68.00;;;;;;5138561;27;20398;-80
2023/07/07 13:06:23;;;;;;;;;;;29.70;69.10;;;;;;5139069;27;19923;-83
2023/07/07 13:09:01;;;;;;;;;;;29.50;64.10;;;;;;5121316;27;19919;-81
2023/07/07 13:11:31;;;;;;;;;;;29.50;64.60;;;;;;5137585;27;19923;-83
2023/07/07 13:13:57;;;;;;;;;;;29.70;68.90;;;;;;5121206;27;19926;-87
2023/07/07 13:16:22;;;;;;;;;;;30.10;71.00;;;;;;5137985;27;20364;-84
2023/07/07 13:18:48;;;;;;;;;;;30.40;66.50;;;;;;5138028;27;19919;-80
2023/07/07 13:21:14;;;;;;;;;;;30.50;65.90;;;;;;5137545;27;20375;-85
2023/07/07 13:23:44;;;;;;;;;;;30.70;68.00;;;;;;5137254;27;19923;-80
2023/07/07 13:26:26;;;;;;;;;;;30.80;64.40;;;;;;5138116;27;19923;-81
2023/07/07 13:28:52;;;;;;;;;;;30.90;66.90;;;;;;5138014;27;20382;-81
2023/07/07 13:31:17;;;;;;;;;;;31.10;65.50;;;;;;5119966;27;19953;-83
2023/07/07 13:33:43;;;;;;;;;;;31.20;60.60;;;;;;5120550;27;20031;-79
2023/07/07 13:36:09;;;;;;;;;;;31.20;64.30;;;;;;5137246;27;19922;-81
2023/07/07 13:38:37;;;;;;;;;;;31.40;67.50;;;;;;5137328;27;19919;-81
2023/07/07 13:41:05;;;;;;;;;;;31.60;66.70;;;;;;5137066;27;20026;-82
2023/07/07 13:43:36;;;;;;;;;;;31.60;64.80;;;;;;5137262;27;19954;-80
2023/07/07 13:46:07;;;;;;;;;;;31.60;73.70;;;;;;5137151;27;19919;-84
2023/07/07 13:48:33;;;;;;;;;;;31.40;60.00;;;;;;5120862;27;20368;-84
2023/07/07 13:51:03;;;;;;;;;;;31.40;65.90;;;;;;5121578;27;19925;-87
2023/07/07 13:53:29;;;;;;;;;;;31.50;69.00;;;;;;5156461;27;19926;-81
2023/07/07 13:55:56;;;;;;;;;;;31.50;61.00;;;;;;5137459;27;19923;-80
2023/07/07 13:58:23;;;;;;;;;;;31.50;61.60;;;;;;5137162;27;20014;-81
2023/07/07 14:00:57;;;;;;;;;;;31.60;67.40;;;;;;5136719;27;19938;-80
2023/07/07 14:03:24;;;;;;;;;;;31.90;63.60;;;;;;5137308;27;20006;-79
2023/07/07 14:05:54;;;;;;;;;;;32.00;61.80;;;;;;5102395;27;19923;-80
2023/07/07 14:08:26;;;;;;;;;;;32.00;61.10;;;;;;5155718;27;19923;-82
2023/07/07 14:10:54;;;;;;;;;;;32.10;62.50;;;;;;5137373;27;19927;-83
2023/07/07 14:13:29;;;;;;;;;;;32.10;61.60;;;;;;5136906;27;19961;-79
2023/07/07 14:15:55;;;;;;;;;;;32.20;60.60;;;;;;5137232;27;19926;-79
2023/07/07 14:18:23;;;;;;;;;;;32.40;56.80;;;;;;5155070;27;19923;-79
2023/07/07 14:20:50;;;;;;;;;;;32.50;62.80;;;;;;5155581;27;20291;-84
2023/07/07 14:23:17;;;;;;;;;;;32.80;62.30;;;;;;5136103;27;20020;-78
2023/07/07 14:25:44;;;;;;;;;;;33.00;57.80;;;;;;5136851;27;19926;-79